Time;durP1;ratioP1;P1;durP2;ratioP2;P2;SDS_P1;SDS_P2;PMS_P1;PMS_P2;Temp;Humidity;BMP_temperature;BMP_pressure;BME280_temperature;BME280_humidity;BME280_pressure;Samples;Min_cycle;Max_cycle;Signal;HPM_P1;HPM_P2
2023/09/22 00:00:18;;;;;;;15.60;14.67;;;19.20;99.90;;;;;;5049041;28;20408;-47
2023/09/22 00:02:45;;;;;;;16.57;15.27;;;19.20;99.90;;;;;;5055815;28;20193;-49
2023/09/22 00:05:13;;;;;;;15.87;14.87;;;19.20;99.90;;;;;;5060320;28;20408;-51
2023/09/22 00:07:40;;;;;;;15.00;14.10;;;19.20;99.90;;;;;;5049107;28;20440;-49
2023/09/22 00:10:06;;;;;;;16.23;15.20;;;19.20;99.90;;;;;;5060118;28;20416;-49
2023/09/22 00:12:32;;;;;;;15.90;14.90;;;19.20;99.90;;;;;;5058265;28;20554;-48
2023/09/22 00:14:58;;;;;;;15.00;14.20;;;19.20;99.90;;;;;;5060349;28;20980;-44
2023/09/22 00:17:25;;;;;;;16.33;15.30;;;19.20;99.90;;;;;;5055545;28;20471;-45
2023/09/22 00:19:51;;;;;;;15.87;14.57;;;19.20;99.90;;;;;;5045577;28;20436;-47
2023/09/22 00:22:16;;;;;;;15.80;14.77;;;19.20;99.90;;;;;;5057272;28;20510;-48
2023/09/22 00:24:42;;;;;;;15.10;14.20;;;19.30;99.90;;;;;;5051946;28;20192;-44
2023/09/22 00:27:07;;;;;;;16.23;15.20;;;19.30;99.90;;;;;;5055337;28;20181;-52
2023/09/22 00:29:33;;;;;;;15.73;14.73;;;19.30;99.90;;;;;;5055258;28;20185;-45
2023/09/22 00:31:58;;;;;;;15.47;14.57;;;19.40;99.90;;;;;;5049119;28;20260;-47
2023/09/22 00:34:24;;;;;;;16.33;15.13;;;19.40;99.90;;;;;;5059973;28;20189;-45
2023/09/22 00:36:52;;;;;;;15.67;14.67;;;19.50;99.90;;;;;;5045216;28;20567;-47
2023/09/22 00:39:18;;;;;;;15.43;14.53;;;19.50;99.90;;;;;;5053600;28;20573;-49
2023/09/22 00:41:44;;;;;;;16.70;15.70;;;19.60;99.90;;;;;;5055012;28;20518;-50
2023/09/22 00:44:09;;;;;;;16.63;15.37;;;19.60;99.90;;;;;;5060047;28;20242;-50
2023/09/22 00:46:35;;;;;;;15.60;14.70;;;19.50;99.90;;;;;;5050644;28;20727;-49
2023/09/22 00:49:01;;;;;;;17.37;16.17;;;19.40;99.90;;;;;;5050271;28;20222;-49
2023/09/22 00:51:27;;;;;;;16.10;15.13;;;19.40;99.90;;;;;;5051424;28;20529;-47
2023/09/22 00:53:53;;;;;;;16.40;15.40;;;19.30;99.90;;;;;;5059692;28;20185;-48
2023/09/22 00:56:21;;;;;;;16.87;15.77;;;19.20;99.90;;;;;;5056961;28;20277;-49
2023/09/22 00:58:49;;;;;;;16.67;15.57;;;19.20;99.90;;;;;;5052346;28;20733;-48
2023/09/22 01:01:15;;;;;;;15.07;14.07;;;19.10;99.90;;;;;;5056268;28;20455;-50
2023/09/22 01:03:41;;;;;;;16.33;15.33;;;19.10;99.90;;;;;;5061410;28;20416;-46
2023/09/22 01:06:10;;;;;;;16.00;15.00;;;19.00;99.90;;;;;;5051319;28;20450;-47
2023/09/22 01:08:36;;;;;;;16.57;15.60;;;19.00;99.90;;;;;;5063671;28;20185;-51
2023/09/22 01:11:01;;;;;;;17.33;16.00;;;19.00;99.90;;;;;;5062199;28;20431;-48
2023/09/22 01:13:28;;;;;;;16.60;15.60;;;18.90;99.90;;;;;;5063269;28;20463;-48
2023/09/22 01:15:55;;;;;;;16.43;15.43;;;18.90;99.90;;;;;;5058809;28;20188;-45
2023/09/22 01:18:21;;;;;;;16.43;15.30;;;18.80;99.90;;;;;;5063319;28;20423;-46
2023/09/22 01:20:47;;;;;;;15.87;14.87;;;18.80;99.90;;;;;;5049173;28;20477;-46
2023/09/22 01:23:14;;;;;;;15.93;14.90;;;18.70;99.90;;;;;;5063394;28;20412;-48
2023/09/22 01:25:43;;;;;;;16.73;15.63;;;18.70;99.90;;;;;;5060117;28;20181;-45
2023/09/22 01:28:10;;;;;;;16.77;15.70;;;18.60;99.90;;;;;;5046768;28;20473;-47
2023/09/22 01:30:36;;;;;;;16.10;15.10;;;18.50;99.90;;;;;;5054827;28;20463;-47
2023/09/22 01:33:03;;;;;;;16.77;15.67;;;18.50;99.90;;;;;;5061797;28;20596;-43
2023/09/22 01:35:35;;;;;;;17.27;16.13;;;18.50;99.90;;;;;;5063008;28;20518;-46
2023/09/22 01:38:12;;;;;;;17.33;16.23;;;18.40;99.90;;;;;;5062983;28;20459;-48
2023/09/22 01:40:39;;;;;;;16.90;15.50;;;18.40;99.90;;;;;;5054437;28;20431;-47
2023/09/22 01:43:05;;;;;;;16.83;15.73;;;18.40;99.90;;;;;;5062043;28;20455;-48
2023/09/22 01:45:30;;;;;;;16.60;15.40;;;18.30;99.90;;;;;;5048863;28;20977;-50
2023/09/22 01:47:56;;;;;;;15.97;14.97;;;18.40;99.90;;;;;;5051196;28;20193;-51
2023/09/22 01:50:22;;;;;;;16.87;15.77;;;18.40;99.90;;;;;;5056514;28;20208;-52
2023/09/22 01:52:47;;;;;;;17.13;15.90;;;18.40;99.90;;;;;;5062631;28;20983;-51
2023/09/22 01:55:13;;;;;;;16.83;15.70;;;18.30;99.90;;;;;;5053635;28;20186;-48
2023/09/22 01:57:38;;;;;;;16.63;15.50;;;18.30;99.90;;;;;;5059969;28;20210;-51
2023/09/22 02:00:06;;;;;;;16.50;15.20;;;18.30;99.90;;;;;;5053241;28;20193;-44
2023/09/22 02:02:33;;;;;;;16.53;15.43;;;18.30;99.90;;;;;;5061917;28;20897;-52
2023/09/22 02:04:59;;;;;;;17.00;15.80;;;18.30;99.90;;;;;;5049039;28;20432;-47
2023/09/22 02:07:26;;;;;;;17.10;15.90;;;18.30;99.90;;;;;;5055253;28;20432;-49
2023/09/22 02:09:52;;;;;;;16.20;14.90;;;18.30;99.90;;;;;;5056169;28;20423;-49
2023/09/22 02:12:17;;;;;;;16.83;15.50;;;18.30;99.90;;;;;;5055963;28;20483;-46
2023/09/22 02:14:43;;;;;;;16.90;15.90;;;18.30;99.90;;;;;;5055593;28;20661;-44
2023/09/22 02:17:08;;;;;;;16.23;15.23;;;18.30;99.90;;;;;;5056390;28;20370;-48
2023/09/22 02:19:35;;;;;;;16.07;15.03;;;18.30;99.90;;;;;;5049592;28;20181;-46
2023/09/22 02:22:01;;;;;;;16.27;15.17;;;18.30;99.90;;;;;;5061352;28;20177;-52
2023/09/22 02:24:27;;;;;;;15.60;14.60;;;18.30;99.90;;;;;;5062057;28;20419;-50
2023/09/22 02:26:52;;;;;;;17.07;15.97;;;18.30;99.90;;;;;;5053390;28;20490;-50
2023/09/22 02:29:18;;;;;;;16.37;15.27;;;18.30;99.90;;;;;;5061640;28;20627;-46
2023/09/22 02:31:43;;;;;;;16.40;15.20;;;18.30;99.90;;;;;;5056357;28;20446;-47
2023/09/22 02:34:09;;;;;;;16.23;15.23;;;18.30;99.90;;;;;;5055229;28;20189;-48
2023/09/22 02:36:35;;;;;;;16.43;15.13;;;18.30;99.90;;;;;;5061664;28;20197;-47
2023/09/22 02:39:00;;;;;;;16.63;15.57;;;18.30;99.90;;;;;;5049826;28;20219;-47
2023/09/22 02:41:26;;;;;;;16.10;15.00;;;18.30;99.90;;;;;;5052051;28;20246;-51
2023/09/22 02:43:51;;;;;;;15.97;14.97;;;18.30;99.90;;;;;;5061976;28;20292;-46
2023/09/22 02:46:17;;;;;;;16.60;15.40;;;18.30;99.90;;;;;;5059506;28;20186;-45
2023/09/22 02:48:42;;;;;;;16.63;15.53;;;18.20;99.90;;;;;;5057297;28;20185;-51
2023/09/22 02:51:08;;;;;;;16.47;15.27;;;18.20;99.90;;;;;;5060565;28;20208;-47
2023/09/22 02:53:34;;;;;;;15.93;14.97;;;18.20;99.90;;;;;;5055072;28;20205;-50
2023/09/22 02:56:05;;;;;;;14.27;13.47;;;18.20;99.90;;;;;;5050748;28;20184;-47
2023/09/22 02:58:32;;;;;;;13.30;12.53;;;18.20;99.90;;;;;;5054900;28;20174;-47
2023/09/22 03:00:57;;;;;;;12.50;11.80;;;18.40;99.90;;;;;;5059667;28;20979;-47
2023/09/22 03:03:24;;;;;;;13.03;12.30;;;18.60;99.90;;;;;;5060189;28;20510;-47
2023/09/22 03:05:49;;;;;;;12.07;11.40;;;18.70;99.90;;;;;;5061280;28;20189;-46
2023/09/22 03:08:15;;;;;;;12.00;11.40;;;18.70;99.90;;;;;;5061089;28;20492;-50
2023/09/22 03:10:41;;;;;;;11.90;11.40;;;18.80;99.90;;;;;;5052463;28;20193;-49
2023/09/22 03:13:06;;;;;;;12.10;11.50;;;18.90;99.90;;;;;;5047847;28;20241;-49
2023/09/22 03:15:34;;;;;;;11.67;11.07;;;19.00;99.90;;;;;;5049484;28;20182;-47
2023/09/22 03:18:00;;;;;;;11.67;11.00;;;19.10;99.90;;;;;;5054700;28;20209;-48
2023/09/22 03:20:26;;;;;;;11.00;10.50;;;19.20;99.90;;;;;;5048223;28;20467;-49
2023/09/22 03:22:52;;;;;;;11.60;11.00;;;19.30;99.90;;;;;;5052781;28;20632;-48
2023/09/22 03:25:17;;;;;;;11.30;10.80;;;19.40;99.90;;;;;;5061103;28;20415;-47
2023/09/22 03:27:43;;;;;;;11.60;11.10;;;19.40;99.90;;;;;;5060390;28;20189;-45
2023/09/22 03:30:10;;;;;;;10.70;10.30;;;19.50;99.90;;;;;;5053950;28;20193;-52
2023/09/22 03:32:37;;;;;;;10.40;9.90;;;19.60;99.90;;;;;;5059426;28;20439;-48
2023/09/22 03:35:07;;;;;;;9.97;9.47;;;19.70;99.90;;;;;;5060827;28;20419;-48
2023/09/22 03:37:36;;;;;;;10.40;10.00;;;19.80;99.90;;;;;;5051448;28;20460;-47
2023/09/22 03:40:13;;;;;;;9.33;8.93;;;19.80;99.90;;;;;;5059109;28;20437;-42
2023/09/22 03:42:42;;;;;;;9.60;9.20;;;19.80;99.90;;;;;;5060659;28;20460;-53
2023/09/22 03:45:08;;;;;;;9.73;9.33;;;19.80;99.90;;;;;;5051922;28;20421;-48
2023/09/22 03:47:34;;;;;;;10.10;9.70;;;19.80;99.90;;;;;;5057640;28;20431;-46
2023/09/22 03:50:00;;;;;;;10.20;9.80;;;19.80;99.90;;;;;;5059753;28;20453;-47
2023/09/22 03:52:26;;;;;;;9.90;9.50;;;19.70;99.90;;;;;;5051225;28;20188;-49
2023/09/22 03:54:51;;;;;;;10.40;9.90;;;19.70;99.90;;;;;;5055383;28;20194;-47
2023/09/22 03:57:18;;;;;;;9.97;9.57;;;19.70;99.90;;;;;;5055779;28;20965;-43
2023/09/22 03:59:44;;;;;;;9.37;9.07;;;19.70;99.90;;;;;;5043521;28;20217;-46
2023/09/22 04:02:09;;;;;;;9.43;9.13;;;19.70;99.90;;;;;;5058208;28;20515;-49
2023/09/22 04:04:35;;;;;;;9.30;9.00;;;19.70;99.90;;;;;;5060544;28;20177;-49
2023/09/22 04:07:01;;;;;;;8.23;7.93;;;19.70;99.90;;;;;;5052240;28;20718;-47
2023/09/22 04:09:28;;;;;;;9.70;9.30;;;19.60;99.90;;;;;;5053153;28;20552;-47
2023/09/22 04:11:54;;;;;;;9.03;8.73;;;19.60;99.90;;;;;;5051434;28;20259;-48
2023/09/22 04:14:21;;;;;;;9.67;9.27;;;19.60;99.90;;;;;;5046185;28;20439;-48
2023/09/22 04:16:46;;;;;;;8.93;8.63;;;19.50;99.90;;;;;;5052914;28;20201;-48
2023/09/22 04:19:13;;;;;;;9.70;9.30;;;19.50;99.90;;;;;;5053374;28;20440;-46
2023/09/22 04:21:43;;;;;;;9.80;9.40;;;19.50;99.90;;;;;;5046387;28;20889;-49
2023/09/22 04:24:11;;;;;;;9.13;8.83;;;19.50;99.90;;;;;;5056506;28;20435;-47
2023/09/22 04:26:42;;;;;;;8.70;8.40;;;19.40;99.90;;;;;;5043439;28;20435;-48
2023/09/22 04:29:09;;;;;;;8.80;8.50;;;19.40;99.90;;;;;;5042965;28;20919;-48
2023/09/22 04:31:35;;;;;;;9.50;9.10;;;19.40;99.90;;;;;;5041423;28;21377;-46
2023/09/22 04:34:03;;;;;;;9.80;9.40;;;19.40;99.90;;;;;;5044093;28;20480;-45
2023/09/22 04:36:30;;;;;;;9.63;9.27;;;19.40;99.90;;;;;;5049394;28;20197;-47
2023/09/22 04:38:56;;;;;;;9.70;9.30;;;19.30;99.90;;;;;;5048364;28;20439;-50
2023/09/22 04:41:22;;;;;;;9.80;9.40;;;19.30;99.90;;;;;;5040312;28;20432;-46
2023/09/22 04:43:48;;;;;;;9.73;9.33;;;19.30;99.90;;;;;;5051838;28;20674;-48
2023/09/22 04:46:15;;;;;;;10.10;9.70;;;19.30;99.90;;;;;;5039087;28;20182;-45
2023/09/22 04:48:41;;;;;;;10.07;9.50;;;19.20;99.90;;;;;;5044607;28;20914;-50
2023/09/22 04:51:06;;;;;;;10.30;9.80;;;19.20;99.90;;;;;;5040383;28;20509;-48
2023/09/22 04:53:33;;;;;;;10.30;9.80;;;19.20;99.90;;;;;;5057919;28;20427;-52
2023/09/22 04:56:03;;;;;;;9.97;9.57;;;19.20;99.90;;;;;;5057459;28;20967;-48
2023/09/22 04:58:30;;;;;;;9.90;9.50;;;19.10;99.90;;;;;;5057354;28;20467;-48
2023/09/22 05:00:56;;;;;;;9.87;9.47;;;19.10;99.90;;;;;;5053146;28;20475;-51
2023/09/22 05:03:24;;;;;;;9.20;8.80;;;19.10;99.90;;;;;;5056596;28;20431;-52
2023/09/22 05:05:51;;;;;;;9.57;9.17;;;19.00;99.90;;;;;;5058410;28;20423;-46
2023/09/22 05:08:17;;;;;;;10.10;9.70;;;19.00;99.90;;;;;;5048634;28;20443;-44
2023/09/22 05:10:52;;;;;;;10.00;9.60;;;19.00;99.90;;;;;;5052162;28;20428;-44
2023/09/22 05:13:18;;;;;;;10.10;9.70;;;18.90;99.90;;;;;;5058509;28;20501;-49
2023/09/22 05:15:44;;;;;;;9.50;9.10;;;18.90;99.90;;;;;;5058545;28;20462;-49
2023/09/22 05:18:13;;;;;;;9.50;9.20;;;18.80;99.90;;;;;;5045768;28;20274;-49
2023/09/22 05:20:42;;;;;;;9.07;8.70;;;18.70;99.90;;;;;;5058549;28;20411;-47
2023/09/22 05:23:09;;;;;;;9.20;8.90;;;18.70;99.90;;;;;;5059563;28;20453;-45
2023/09/22 05:25:39;;;;;;;10.00;9.60;;;18.70;99.90;;;;;;5042699;28;20440;-48
2023/09/22 05:28:05;;;;;;;9.70;9.30;;;18.70;99.90;;;;;;5044150;28;21216;-46
2023/09/22 05:30:31;;;;;;;9.27;8.77;;;18.70;99.90;;;;;;5041702;28;20427;-48
2023/09/22 05:32:57;;;;;;;9.00;8.70;;;18.70;99.90;;;;;;5044148;28;20470;-50
2023/09/22 05:35:23;;;;;;;10.40;9.90;;;18.60;99.90;;;;;;5044298;28;21281;-45
2023/09/22 05:37:52;;;;;;;9.80;9.40;;;18.70;99.90;;;;;;5053873;28;20288;-48
2023/09/22 05:40:19;;;;;;;10.60;10.20;;;18.60;99.90;;;;;;5047966;28;20178;-49
2023/09/22 05:42:45;;;;;;;10.27;9.77;;;18.70;99.90;;;;;;5038426;28;20432;-52
2023/09/22 05:45:11;;;;;;;9.83;9.43;;;18.60;99.90;;;;;;5041546;28;20532;-50
2023/09/22 05:47:37;;;;;;;10.10;9.70;;;18.60;99.90;;;;;;5040874;28;20226;-48
2023/09/22 05:50:03;;;;;;;10.07;9.67;;;18.60;99.90;;;;;;5043159;28;20444;-49
2023/09/22 05:52:29;;;;;;;9.23;8.93;;;18.60;99.90;;;;;;5046049;28;20190;-48
2023/09/22 05:54:56;;;;;;;9.70;9.30;;;18.60;99.90;;;;;;5049622;28;20413;-51
2023/09/22 05:57:22;;;;;;;10.27;9.87;;;18.70;99.90;;;;;;5046511;28;20980;-41
2023/09/22 05:59:48;;;;;;;10.33;9.93;;;18.70;99.90;;;;;;5047464;28;20432;-45
2023/09/22 06:02:14;;;;;;;10.10;9.67;;;18.60;99.90;;;;;;5047595;28;20198;-41
2023/09/22 06:04:39;;;;;;;10.20;9.80;;;18.60;99.90;;;;;;5047314;28;20750;-40
2023/09/22 06:07:12;;;;;;;10.30;9.90;;;18.70;99.90;;;;;;5045424;28;20197;-42
2023/09/22 06:09:38;;;;;;;9.90;9.50;;;18.60;99.90;;;;;;5049174;28;20215;-40
2023/09/22 06:12:04;;;;;;;10.13;9.73;;;18.60;99.90;;;;;;5046638;28;20494;-40
2023/09/22 06:14:29;;;;;;;10.37;9.87;;;18.60;99.90;;;;;;5059909;28;20431;-43
2023/09/22 06:16:55;;;;;;;9.90;9.50;;;18.70;99.90;;;;;;5051847;28;20316;-40
2023/09/22 06:19:21;;;;;;;9.70;9.30;;;18.70;99.90;;;;;;5048599;28;20275;-39
2023/09/22 06:21:47;;;;;;;10.60;9.83;;;18.70;99.90;;;;;;5056800;28;20427;-42
2023/09/22 06:24:12;;;;;;;10.47;10.07;;;18.70;99.90;;;;;;5059948;28;20246;-43
2023/09/22 06:26:38;;;;;;;10.50;10.00;;;18.50;99.90;;;;;;5045958;28;20190;-40
2023/09/22 06:29:05;;;;;;;10.03;9.53;;;18.30;99.90;;;;;;5057594;28;20232;-42
2023/09/22 06:31:31;;;;;;;10.00;9.60;;;18.20;99.90;;;;;;5062147;28;20196;-40
2023/09/22 06:33:57;;;;;;;9.93;9.53;;;18.10;99.90;;;;;;5060355;28;20437;-41
2023/09/22 06:36:23;;;;;;;9.63;9.23;;;18.00;99.90;;;;;;5050768;28;20439;-40
2023/09/22 06:38:50;;;;;;;10.60;10.00;;;18.00;99.90;;;;;;5048312;28;20190;-40
2023/09/22 06:41:17;;;;;;;10.20;9.80;;;18.00;99.90;;;;;;5041754;28;20281;-41
2023/09/22 06:43:44;;;;;;;10.93;10.33;;;18.00;99.90;;;;;;5060366;28;20442;-43
2023/09/22 06:46:10;;;;;;;10.97;10.50;;;18.00;99.90;;;;;;5060614;28;20446;-40
2023/09/22 06:48:36;;;;;;;10.10;9.70;;;18.00;99.90;;;;;;5061508;28;20423;-42
2023/09/22 06:51:02;;;;;;;10.57;10.13;;;18.10;99.90;;;;;;5056566;28;20221;-41
2023/09/22 06:53:28;;;;;;;10.60;10.20;;;18.10;99.90;;;;;;5054082;28;21142;-41
2023/09/22 06:56:11;;;;;;;10.27;9.87;;;18.10;99.90;;;;;;5046745;28;20427;-42
2023/09/22 06:58:38;;;;;;;10.33;9.90;;;18.10;99.90;;;;;;5054262;28;20426;-41
2023/09/22 07:01:07;;;;;;;10.23;9.73;;;18.20;99.90;;;;;;5042947;28;20432;-39
2023/09/22 07:03:33;;;;;;;10.60;10.10;;;18.20;99.90;;;;;;5042172;28;20859;-45
2023/09/22 07:05:59;;;;;;;10.33;9.93;;;18.20;99.90;;;;;;5042598;28;20424;-41
2023/09/22 07:08:25;;;;;;;10.10;9.70;;;18.30;99.90;;;;;;5040189;28;20212;-41
2023/09/22 07:10:54;;;;;;;10.00;9.50;;;18.20;99.90;;;;;;5044404;28;20526;-41
2023/09/22 07:13:19;;;;;;;10.40;9.80;;;18.30;99.90;;;;;;5042698;28;20653;-40
2023/09/22 07:15:46;;;;;;;10.40;10.00;;;18.30;99.90;;;;;;5044279;28;20494;-40
2023/09/22 07:18:12;;;;;;;10.17;9.63;;;18.40;99.90;;;;;;5043015;28;20209;-41
2023/09/22 07:20:43;;;;;;;10.70;10.10;;;18.40;99.90;;;;;;5043010;28;20432;-41
2023/09/22 07:23:09;;;;;;;9.30;8.90;;;18.40;99.90;;;;;;5041781;28;21416;-41
2023/09/22 07:25:34;;;;;;;10.17;9.77;;;18.40;99.90;;;;;;5042322;28;20420;-42
2023/09/22 07:28:00;;;;;;;9.97;9.57;;;18.50;99.90;;;;;;5041226;28;20717;-40
2023/09/22 07:30:29;;;;;;;10.53;10.00;;;18.60;99.90;;;;;;5041407;28;20751;-42
2023/09/22 07:32:55;;;;;;;10.40;10.00;;;18.50;99.90;;;;;;5043346;28;20606;-44
2023/09/22 07:35:21;;;;;;;10.37;9.97;;;18.50;99.90;;;;;;5049192;28;20954;-42
2023/09/22 07:37:47;;;;;;;10.10;9.70;;;18.50;99.90;;;;;;5047529;28;20472;-40
2023/09/22 07:40:13;;;;;;;10.70;10.20;;;18.60;99.90;;;;;;5045590;28;20173;-41
2023/09/22 07:42:41;;;;;;;10.60;10.20;;;18.70;99.90;;;;;;5044028;28;20456;-43
2023/09/22 07:45:08;;;;;;;10.63;10.13;;;18.80;99.90;;;;;;5042036;28;21322;-43
2023/09/22 07:47:34;;;;;;;9.97;9.57;;;18.90;99.90;;;;;;5048936;28;20860;-40
2023/09/22 07:50:00;;;;;;;10.20;9.80;;;18.90;99.90;;;;;;5050596;28;20914;-41
2023/09/22 07:52:26;;;;;;;9.50;9.10;;;19.00;99.90;;;;;;5057228;28;20434;-43
2023/09/22 07:54:53;;;;;;;10.20;9.80;;;19.00;99.90;;;;;;5056242;28;20205;-42
2023/09/22 07:57:18;;;;;;;9.07;8.77;;;19.00;99.90;;;;;;5059930;28;20204;-46
2023/09/22 07:59:44;;;;;;;9.20;8.80;;;18.90;99.90;;;;;;5059721;28;20428;-42
2023/09/22 08:02:10;;;;;;;9.67;9.27;;;18.90;99.90;;;;;;5057674;28;20677;-40
2023/09/22 08:04:36;;;;;;;10.47;9.87;;;18.90;99.90;;;;;;5057811;28;20192;-41
2023/09/22 08:07:03;;;;;;;10.47;9.97;;;18.90;99.90;;;;;;5037402;28;20195;-43
2023/09/22 08:09:28;;;;;;;10.03;9.53;;;18.80;99.90;;;;;;5057635;28;20757;-41
2023/09/22 08:11:54;;;;;;;10.00;9.50;;;18.90;99.90;;;;;;5057831;28;20569;-42
2023/09/22 08:14:21;;;;;;;10.10;9.70;;;18.90;99.90;;;;;;5057567;28;20217;-40
2023/09/22 08:16:48;;;;;;;9.43;9.03;;;19.00;99.90;;;;;;5055235;28;20503;-41
2023/09/22 08:19:14;;;;;;;9.83;9.43;;;19.00;99.90;;;;;;5058831;28;20434;-40
2023/09/22 08:21:40;;;;;;;10.30;9.90;;;18.90;99.90;;;;;;5056564;28;20416;-40
2023/09/22 08:24:07;;;;;;;9.37;9.03;;;18.80;99.90;;;;;;5049747;28;20224;-40
2023/09/22 08:26:33;;;;;;;10.33;9.93;;;18.70;99.90;;;;;;5058030;28;20446;-40
2023/09/22 08:29:00;;;;;;;10.17;9.73;;;18.60;99.90;;;;;;5059592;28;20427;-39
2023/09/22 08:31:26;;;;;;;9.13;8.83;;;18.50;99.90;;;;;;5057857;28;20438;-44
2023/09/22 08:33:53;;;;;;;9.10;8.70;;;18.50;99.90;;;;;;5059275;28;20516;-40
2023/09/22 08:36:19;;;;;;;10.23;9.73;;;18.50;99.90;;;;;;5052771;28;20886;-41
2023/09/22 08:38:47;;;;;;;9.63;9.23;;;18.40;99.90;;;;;;5052564;28;20432;-40
2023/09/22 08:41:13;;;;;;;10.10;9.60;;;18.30;99.90;;;;;;5048566;28;20581;-41
2023/09/22 08:43:40;;;;;;;9.43;9.03;;;18.40;99.90;;;;;;5058065;28;20424;-41
2023/09/22 08:46:06;;;;;;;10.30;9.80;;;18.50;99.90;;;;;;5056311;28;20503;-41
2023/09/22 08:48:31;;;;;;;8.80;8.40;;;18.50;99.90;;;;;;5059101;28;20438;-42
2023/09/22 08:50:57;;;;;;;10.60;10.10;;;18.50;99.90;;;;;;5058514;28;20760;-43
2023/09/22 08:53:23;;;;;;;10.37;9.87;;;18.40;99.90;;;;;;5057334;28;20656;-41
2023/09/22 08:55:52;;;;;;;10.20;9.80;;;18.40;99.90;;;;;;5048551;28;20440;-42
2023/09/22 08:58:18;;;;;;;10.43;9.93;;;18.50;99.90;;;;;;5051296;28;20209;-42
2023/09/22 09:00:47;;;;;;;10.80;10.30;;;18.50;99.90;;;;;;5058873;28;20427;-41
2023/09/22 09:03:14;;;;;;;9.63;9.23;;;18.70;99.90;;;;;;5059002;28;20415;-42
2023/09/22 09:05:39;;;;;;;9.97;9.57;;;18.80;99.90;;;;;;5058999;28;20435;-39
2023/09/22 09:08:11;;;;;;;10.13;9.73;;;18.70;99.90;;;;;;5058906;28;20426;-39
2023/09/22 09:10:38;;;;;;;10.53;10.03;;;18.70;99.90;;;;;;5049509;28;20221;-41
2023/09/22 09:13:06;;;;;;;11.20;10.70;;;18.60;99.90;;;;;;5049690;28;20567;-41
2023/09/22 09:15:47;;;;;;;11.60;11.10;;;18.50;99.90;;;;;;5047723;28;20848;-42
2023/09/22 09:18:18;;;;;;;11.90;11.30;;;18.30;99.90;;;;;;5051641;28;20478;-41
2023/09/22 09:20:45;;;;;;;12.20;11.60;;;18.20;99.90;;;;;;5048563;28;20444;-41
2023/09/22 09:23:22;;;;;;;11.40;10.90;;;18.10;99.90;;;;;;5039728;28;20440;-40
2023/09/22 09:25:50;;;;;;;12.60;12.00;;;17.90;99.90;;;;;;5041465;28;20436;-41
2023/09/22 09:28:17;;;;;;;12.70;12.10;;;17.80;99.90;;;;;;5046963;28;20443;-41
2023/09/22 09:30:54;;;;;;;13.53;12.83;;;17.70;99.90;;;;;;5044053;28;20436;-41
2023/09/22 09:33:25;;;;;;;14.60;13.90;;;17.60;99.90;;;;;;5046137;28;20794;-41
2023/09/22 09:35:52;;;;;;;15.60;14.80;;;17.50;99.90;;;;;;5045428;28;20459;-42
2023/09/22 09:38:27;;;;;;;15.60;14.80;;;17.40;99.90;;;;;;5058330;28;20456;-41
2023/09/22 09:40:54;;;;;;;14.97;14.27;;;17.30;99.90;;;;;;5048452;28;20931;-42
2023/09/22 09:43:21;;;;;;;14.93;14.23;;;17.30;99.90;;;;;;5062115;28;20446;-41
2023/09/22 09:45:48;;;;;;;15.50;14.70;;;17.20;99.90;;;;;;5054875;28;20423;-41
2023/09/22 09:48:18;;;;;;;14.43;13.73;;;17.20;99.90;;;;;;5045264;28;20428;-42
2023/09/22 09:50:51;;;;;;;15.50;14.70;;;17.10;99.90;;;;;;5049604;28;20440;-41
2023/09/22 09:53:27;;;;;;;15.57;14.77;;;17.00;99.90;;;;;;5060571;28;20428;-43
2023/09/22 09:55:58;;;;;;;15.10;14.20;;;17.00;99.90;;;;;;5061555;28;20435;-40
2023/09/22 09:58:30;;;;;;;15.33;14.50;;;17.10;99.90;;;;;;5061036;28;20499;-41
2023/09/22 10:00:57;;;;;;;13.70;13.10;;;17.10;99.90;;;;;;5061870;28;20518;-42
2023/09/22 10:03:25;;;;;;;14.77;14.00;;;17.20;99.90;;;;;;5061841;28;20534;-41
2023/09/22 10:05:52;;;;;;;15.30;14.50;;;17.30;99.90;;;;;;5050646;28;20751;-43
2023/09/22 10:08:22;;;;;;;15.30;14.50;;;17.40;99.90;;;;;;5060170;28;20454;-42
2023/09/22 10:10:50;;;;;;;14.27;13.57;;;17.40;99.90;;;;;;5059626;28;20466;-41
2023/09/22 10:13:17;;;;;;;14.77;14.03;;;17.40;99.90;;;;;;5061838;28;20497;-43
2023/09/22 10:15:59;;;;;;;13.90;13.20;;;17.50;99.90;;;;;;5061554;28;20427;-42
2023/09/22 10:18:46;;;;;;;13.90;13.23;;;17.60;99.90;;;;;;5061416;28;20478;-42
2023/09/22 10:21:30;;;;;;;14.47;13.77;;;17.60;99.90;;;;;;5052992;28;20465;-40
2023/09/22 10:24:26;;;;;;;14.07;13.37;;;17.70;99.90;;;;;;5051607;28;20784;-42
2023/09/22 10:26:54;;;;;;;14.17;13.57;;;17.70;99.90;;;;;;5048011;28;20996;-40
2023/09/22 10:29:35;;;;;;;14.07;13.30;;;17.80;99.90;;;;;;5057325;28;20467;-42
2023/09/22 10:32:19;;;;;;;13.30;12.60;;;17.80;99.90;;;;;;5050556;28;20440;-40
2023/09/22 10:34:55;;;;;;;12.53;11.97;;;17.90;99.90;;;;;;5049015;28;20842;-43
2023/09/22 10:37:23;;;;;;;12.80;12.20;;;18.00;99.90;;;;;;5041790;28;21008;-41
2023/09/22 10:39:50;;;;;;;12.20;11.63;;;18.10;99.90;;;;;;5050962;28;20427;-42
2023/09/22 10:42:16;;;;;;;11.83;11.23;;;18.20;99.90;;;;;;5050509;28;20429;-41
2023/09/22 10:45:05;;;;;;;11.43;10.93;;;18.30;99.90;;;;;;5044461;28;20417;-41
2023/09/22 10:47:45;;;;;;;11.30;10.80;;;18.30;99.90;;;;;;5061186;28;20189;-40
2023/09/22 10:50:30;;;;;;;12.00;11.50;;;18.30;99.90;;;;;;5061139;28;20759;-40
2023/09/22 10:53:03;;;;;;;11.37;10.77;;;18.40;99.90;;;;;;5061712;28;20419;-42
2023/09/22 10:55:34;;;;;;;11.30;10.80;;;18.50;99.90;;;;;;5050432;28;20474;-42
2023/09/22 10:58:02;;;;;;;11.00;10.50;;;18.60;99.90;;;;;;5055316;28;20460;-40
2023/09/22 11:00:27;;;;;;;11.13;10.63;;;18.70;99.90;;;;;;5061566;28;20913;-40
2023/09/22 11:02:54;;;;;;;10.80;10.30;;;18.60;99.90;;;;;;5060739;28;20415;-40
2023/09/22 11:05:20;;;;;;;11.20;10.70;;;18.50;99.90;;;;;;5060849;28;20636;-39
2023/09/22 11:07:47;;;;;;;10.60;10.10;;;18.40;99.90;;;;;;5061398;28;20955;-39
2023/09/22 11:10:22;;;;;;;11.10;10.60;;;18.50;99.90;;;;;;5059655;28;20431;-40
2023/09/22 11:12:52;;;;;;;10.50;10.10;;;18.40;99.90;;;;;;5050229;28;20459;-39
2023/09/22 11:15:19;;;;;;;12.00;11.30;;;18.40;99.90;;;;;;5061047;28;20445;-39
2023/09/22 11:17:48;;;;;;;11.10;10.60;;;18.50;99.90;;;;;;5053188;28;20559;-39
2023/09/22 11:20:28;;;;;;;11.40;10.90;;;18.50;99.90;;;;;;5054592;28;20415;-39
2023/09/22 11:22:57;;;;;;;10.80;10.30;;;18.50;99.90;;;;;;5057836;28;20495;-40
2023/09/22 11:25:26;;;;;;;11.17;10.67;;;18.40;99.90;;;;;;5042921;28;20494;-41
2023/09/22 11:27:53;;;;;;;11.40;10.90;;;18.40;99.90;;;;;;5060275;28;21021;-40
2023/09/22 11:30:25;;;;;;;11.03;10.53;;;18.30;99.90;;;;;;5052363;28;20833;-46
2023/09/22 11:32:52;;;;;;;11.00;10.40;;;18.30;99.90;;;;;;5044947;28;20433;-43
2023/09/22 11:35:39;;;;;;;11.40;10.90;;;18.30;99.90;;;;;;5051605;28;20680;-42
2023/09/22 11:38:43;;;;;;;11.30;10.80;;;18.20;99.90;;;;;;5042151;28;20494;-42
2023/09/22 11:41:16;;;;;;;12.10;11.50;;;18.20;99.90;;;;;;5037838;28;20430;-42
2023/09/22 11:43:48;;;;;;;11.90;11.30;;;18.20;99.90;;;;;;5046027;28;20518;-48
2023/09/22 11:46:23;;;;;;;11.60;11.10;;;18.20;99.90;;;;;;5049594;28;20412;-43
2023/09/22 11:48:54;;;;;;;11.53;11.03;;;18.20;99.90;;;;;;5054492;28;20396;-40
2023/09/22 11:51:20;;;;;;;11.10;10.60;;;18.20;99.90;;;;;;5045687;28;20419;-40
2023/09/22 11:53:46;;;;;;;11.80;11.30;;;18.10;99.90;;;;;;5051010;28;20415;-41
2023/09/22 11:56:12;;;;;;;11.80;11.30;;;18.20;99.90;;;;;;5049255;28;20178;-40
2023/09/22 11:58:38;;;;;;;11.47;10.97;;;18.20;99.90;;;;;;5053664;28;20455;-42
2023/09/22 12:01:05;;;;;;;11.70;11.00;;;18.20;99.90;;;;;;5049857;28;20252;-42
2023/09/22 12:03:32;;;;;;;11.57;11.07;;;18.30;99.90;;;;;;5048198;28;20774;-41
2023/09/22 12:05:59;;;;;;;12.53;12.03;;;18.30;99.90;;;;;;5056438;28;20420;-44
2023/09/22 12:08:24;;;;;;;12.17;11.60;;;18.20;99.90;;;;;;5049293;28;20428;-41
2023/09/22 12:10:50;;;;;;;13.10;12.50;;;18.00;99.90;;;;;;5047235;28;20435;-40
2023/09/22 12:13:16;;;;;;;14.30;13.63;;;17.70;99.90;;;;;;5040149;28;20315;-41
2023/09/22 12:15:41;;;;;;;14.50;13.80;;;17.40;99.90;;;;;;5042605;28;20264;-40
2023/09/22 12:18:07;;;;;;;14.43;13.77;;;17.30;99.90;;;;;;5043400;28;20193;-42
2023/09/22 12:20:33;;;;;;;15.70;14.60;;;17.20;99.90;;;;;;5043030;28;20609;-41
2023/09/22 12:22:59;;;;;;;15.10;14.40;;;17.00;99.90;;;;;;5056297;28;20192;-43
2023/09/22 12:25:25;;;;;;;14.60;13.90;;;16.90;99.90;;;;;;5043587;28;20423;-39
2023/09/22 12:27:51;;;;;;;14.97;13.97;;;16.80;99.90;;;;;;5044860;28;20182;-41
2023/09/22 12:30:17;;;;;;;13.40;12.80;;;16.80;99.90;;;;;;5054332;28;20177;-41
2023/09/22 12:32:43;;;;;;;13.90;13.20;;;16.80;99.90;;;;;;5058562;28;20488;-41
2023/09/22 12:35:08;;;;;;;14.20;13.40;;;16.70;99.90;;;;;;5058361;28;20188;-41